createdAt,value
2019-05-22T00:00:11.952Z,0.00
2019-05-22T00:01:11.932Z,0.00
2019-05-22T00:02:11.921Z,0.00
2019-05-22T00:03:11.899Z,0.00
2019-05-22T00:04:11.884Z,0.00
2019-05-22T00:05:11.865Z,0.00
2019-05-22T00:06:11.848Z,0.00
2019-05-22T00:07:11.831Z,0.00
2019-05-22T00:08:11.815Z,0.00
2019-05-22T00:09:11.795Z,0.00
2019-05-22T00:10:11.778Z,0.00
2019-05-22T00:11:11.759Z,0.00
2019-05-22T00:12:11.744Z,0.00
2019-05-22T00:13:11.728Z,0.00
2019-05-22T00:14:11.708Z,0.00
2019-05-22T00:15:11.696Z,0.00
2019-05-22T00:16:11.676Z,0.00
2019-05-22T00:17:11.663Z,0.00
2019-05-22T00:18:11.641Z,0.00
2019-05-22T00:19:11.621Z,0.00
2019-05-22T00:20:11.625Z,0.00
2019-05-22T00:21:11.587Z,0.00
2019-05-22T00:22:11.568Z,0.00
2019-05-22T00:23:11.591Z,0.00
2019-05-22T00:24:11.535Z,0.00
2019-05-22T00:25:11.521Z,0.00
2019-05-22T00:26:11.508Z,0.00
2019-05-22T00:27:11.486Z,0.00
2019-05-22T00:28:11.467Z,0.00
2019-05-22T00:29:11.501Z,0.00
2019-05-22T00:30:11.430Z,0.00
2019-05-22T00:31:11.414Z,0.00
2019-05-22T00:32:11.397Z,0.00
2019-05-22T00:33:11.377Z,0.00
2019-05-22T00:34:11.361Z,0.00
2019-05-22T00:35:11.343Z,0.00
2019-05-22T00:36:11.320Z,0.00
2019-05-22T00:37:11.308Z,0.00
2019-05-22T00:38:11.296Z,0.00
2019-05-22T00:39:11.274Z,0.00
2019-05-22T00:40:11.305Z,0.00
2019-05-22T00:41:11.254Z,0.00
2019-05-22T00:42:11.221Z,0.00
2019-05-22T00:43:13.978Z,0.00
2019-05-22T00:44:11.184Z,0.00
2019-05-22T00:45:11.169Z,0.00
2019-05-22T00:46:11.151Z,0.00
2019-05-22T00:47:11.140Z,0.00
2019-05-22T00:48:11.116Z,0.00
2019-05-22T00:49:11.114Z,0.00
2019-05-22T00:50:11.081Z,0.00
2019-05-22T00:51:11.065Z,0.00
2019-05-22T00:52:11.056Z,0.00
2019-05-22T00:53:11.027Z,0.00
2019-05-22T00:54:11.011Z,0.00
2019-05-22T00:55:11.003Z,0.00
2019-05-22T00:56:10.978Z,0.00
2019-05-22T00:57:10.957Z,0.00
2019-05-22T00:58:10.940Z,0.00
2019-05-22T00:59:10.953Z,0.00
2019-05-22T01:00:10.910Z,0.00
2019-05-22T01:01:10.886Z,0.00
2019-05-22T01:02:10.878Z,0.00
2019-05-22T01:03:10.854Z,0.00
2019-05-22T01:04:10.844Z,0.00
2019-05-22T01:05:10.818Z,0.00
2019-05-22T01:06:10.800Z,0.00
2019-05-22T01:07:10.783Z,0.00
2019-05-22T01:08:10.775Z,0.00
2019-05-22T01:09:10.745Z,0.00
2019-05-22T01:10:10.739Z,0.00
2019-05-22T01:11:10.708Z,0.00
2019-05-22T01:12:11.053Z,0.00
2019-05-22T01:13:10.695Z,0.00
2019-05-22T01:14:10.659Z,0.00
2019-05-22T01:15:10.650Z,0.00
2019-05-22T01:16:10.677Z,0.00
2019-05-22T01:17:10.622Z,0.00
2019-05-22T01:18:10.674Z,0.00
2019-05-22T01:19:10.595Z,0.00
2019-05-22T01:20:10.595Z,0.00
2019-05-22T01:21:10.538Z,0.00
2019-05-22T01:22:10.521Z,0.00
2019-05-22T01:23:10.517Z,0.00
2019-05-22T01:24:10.486Z,0.00
2019-05-22T01:25:10.469Z,0.00
2019-05-22T01:26:10.466Z,0.00
2019-05-22T01:27:10.435Z,0.00
2019-05-22T01:28:10.410Z,0.00
2019-05-22T01:29:10.407Z,0.00
2019-05-22T01:30:10.382Z,0.00
2019-05-22T01:31:10.366Z,0.00
2019-05-22T01:32:10.351Z,0.00
2019-05-22T01:33:10.328Z,0.00
2019-05-22T01:34:10.312Z,0.00
2019-05-22T01:35:10.299Z,0.00
2019-05-22T01:36:10.279Z,0.00
2019-05-22T01:37:10.258Z,0.00
2019-05-22T01:38:10.244Z,0.00
2019-05-22T01:39:10.224Z,0.00
2019-05-22T01:40:10.207Z,0.00
2019-05-22T01:41:10.190Z,0.00
2019-05-22T01:42:10.168Z,0.00
2019-05-22T01:43:10.155Z,0.00
2019-05-22T01:44:10.135Z,0.00
2019-05-22T01:45:10.128Z,0.00
2019-05-22T01:46:10.103Z,0.00
2019-05-22T01:47:10.112Z,0.00
2019-05-22T01:48:10.069Z,0.00
2019-05-22T01:49:10.052Z,0.00
2019-05-22T01:50:10.036Z,0.00
2019-05-22T01:51:10.016Z,0.00
2019-05-22T01:52:09.997Z,0.00
2019-05-22T01:53:09.980Z,0.00
2019-05-22T01:54:09.963Z,0.00
2019-05-22T01:55:09.945Z,0.00
2019-05-22T01:56:09.937Z,0.00
2019-05-22T01:57:09.909Z,0.00
2019-05-22T01:58:09.919Z,0.00
2019-05-22T01:59:09.874Z,0.00
2019-05-22T02:00:09.857Z,0.00
2019-05-22T02:01:09.835Z,0.00
2019-05-22T02:02:09.836Z,0.00
2019-05-22T02:03:09.807Z,0.00
2019-05-22T02:04:09.849Z,0.00
2019-05-22T02:05:09.770Z,0.00
2019-05-22T02:06:09.761Z,0.00
2019-05-22T02:07:09.735Z,0.00
2019-05-22T02:08:09.719Z,0.00
2019-05-22T02:09:09.699Z,0.00
2019-05-22T02:10:09.682Z,0.00
2019-05-22T02:11:09.664Z,0.00
2019-05-22T02:12:09.650Z,0.00
2019-05-22T02:13:09.630Z,0.00
2019-05-22T02:14:09.616Z,0.00
2019-05-22T02:15:09.595Z,0.00
2019-05-22T02:16:09.577Z,0.00
2019-05-22T02:17:09.565Z,0.00
2019-05-22T02:18:09.543Z,0.00
2019-05-22T02:19:09.530Z,0.00
2019-05-22T02:20:09.542Z,0.00
2019-05-22T02:21:09.491Z,0.00
2019-05-22T02:22:09.475Z,0.00
2019-05-22T02:23:09.452Z,0.00
2019-05-22T02:24:09.436Z,0.00
2019-05-22T02:25:09.422Z,0.00
2019-05-22T02:26:09.405Z,0.00
2019-05-22T02:27:09.384Z,0.00
2019-05-22T02:28:09.384Z,0.00
2019-05-22T02:29:09.347Z,0.00
2019-05-22T02:30:09.337Z,0.00
2019-05-22T02:31:09.314Z,0.00
2019-05-22T02:32:09.299Z,0.00
2019-05-22T02:33:09.280Z,0.00
2019-05-22T02:34:09.263Z,0.00
2019-05-22T02:35:09.246Z,0.00
2019-05-22T02:36:09.220Z,0.00
2019-05-22T02:37:09.209Z,0.00
2019-05-22T02:38:09.191Z,0.00
2019-05-22T02:39:09.174Z,0.00
2019-05-22T02:40:09.158Z,0.00
2019-05-22T02:41:09.139Z,0.00
2019-05-22T02:42:09.126Z,0.00
2019-05-22T02:43:09.104Z,0.00
2019-05-22T02:44:09.086Z,0.00
2019-05-22T02:45:09.069Z,0.00
2019-05-22T02:46:09.061Z,0.00
2019-05-22T02:47:18.933Z,0.00
2019-05-22T02:48:09.017Z,0.00
2019-05-22T02:49:09.000Z,0.00
2019-05-22T02:50:08.983Z,0.00
2019-05-22T02:51:08.965Z,0.00
2019-05-22T02:52:08.944Z,0.00
2019-05-22T02:53:08.937Z,0.00
2019-05-22T02:54:08.911Z,0.00
2019-05-22T02:55:08.906Z,0.00
2019-05-22T02:56:08.881Z,0.00
2019-05-22T02:57:08.858Z,0.00
2019-05-22T02:58:08.841Z,0.00
2019-05-22T02:59:08.825Z,0.00
2019-05-22T03:00:08.815Z,0.00
2019-05-22T03:01:08.788Z,0.00
2019-05-22T03:02:08.771Z,0.00
2019-05-22T03:03:08.756Z,0.00
2019-05-22T03:04:08.737Z,0.00
2019-05-22T03:05:08.719Z,0.00
2019-05-22T03:06:08.712Z,0.00
2019-05-22T03:07:08.684Z,0.00
2019-05-22T03:08:08.668Z,0.00
2019-05-22T03:09:08.651Z,0.00
2019-05-22T03:10:08.632Z,0.00
2019-05-22T03:11:08.610Z,0.00
2019-05-22T03:12:08.596Z,0.00
2019-05-22T03:13:08.581Z,0.00
2019-05-22T03:14:08.561Z,0.00
2019-05-22T03:15:08.546Z,0.00
2019-05-22T03:16:08.529Z,0.00
2019-05-22T03:17:08.510Z,0.00
2019-05-22T03:18:08.491Z,0.00
2019-05-22T03:19:09.434Z,0.00
2019-05-22T03:20:08.458Z,0.00
2019-05-22T03:21:08.438Z,0.00
2019-05-22T03:22:08.421Z,0.00
2019-05-22T03:23:08.407Z,0.00
2019-05-22T03:24:08.389Z,0.00
2019-05-22T03:25:08.370Z,0.00
2019-05-22T03:26:08.364Z,0.00
2019-05-22T03:27:08.348Z,0.00
2019-05-22T03:28:08.322Z,0.00
2019-05-22T03:29:08.301Z,0.00
2019-05-22T03:30:08.283Z,0.00
2019-05-22T03:31:08.270Z,0.00
2019-05-22T03:32:08.280Z,0.00
2019-05-22T03:33:08.460Z,0.00
2019-05-22T03:34:08.213Z,0.00
2019-05-22T03:35:08.196Z,0.00
2019-05-22T03:36:08.178Z,0.00
2019-05-22T03:37:08.160Z,0.00
2019-05-22T03:38:08.143Z,0.00
2019-05-22T03:39:08.143Z,0.00
2019-05-22T03:40:08.110Z,0.00
2019-05-22T03:41:08.089Z,0.00
2019-05-22T03:42:08.072Z,0.00
2019-05-22T03:43:08.061Z,0.00
2019-05-22T03:44:08.038Z,0.00
2019-05-22T03:45:08.022Z,0.00
2019-05-22T03:46:08.019Z,0.00
2019-05-22T03:47:07.996Z,0.00
2019-05-22T03:48:07.974Z,0.00
2019-05-22T03:49:07.955Z,0.00
2019-05-22T03:50:07.938Z,0.00
2019-05-22T03:51:07.921Z,5.63
2019-05-22T03:52:07.897Z,5.63
2019-05-22T03:53:07.891Z,5.63
2019-05-22T03:54:07.867Z,5.63
2019-05-22T03:55:07.848Z,5.63
2019-05-22T03:56:07.828Z,5.63
2019-05-22T03:57:07.812Z,5.63
2019-05-22T03:58:07.794Z,5.63
2019-05-22T03:59:07.774Z,5.63
2019-05-22T04:00:07.763Z,11.25
2019-05-22T04:01:07.743Z,11.25
2019-05-22T04:02:07.720Z,11.25
2019-05-22T04:03:07.707Z,11.25
2019-05-22T04:04:07.716Z,11.25
2019-05-22T04:05:07.687Z,16.88
2019-05-22T04:06:07.652Z,16.88
2019-05-22T04:07:07.640Z,16.88
2019-05-22T04:08:07.619Z,16.88
2019-05-22T04:09:07.604Z,16.88
2019-05-22T04:10:07.609Z,16.88
2019-05-22T04:11:07.573Z,16.88
2019-05-22T04:12:07.551Z,16.88
2019-05-22T04:13:07.527Z,16.88
2019-05-22T04:14:07.517Z,16.88
2019-05-22T04:15:07.684Z,16.88
2019-05-22T04:16:07.672Z,16.88
2019-05-22T04:17:07.657Z,22.50
2019-05-22T04:18:07.631Z,22.50
2019-05-22T04:19:07.454Z,22.50
2019-05-22T04:20:07.411Z,22.50
2019-05-22T04:21:07.403Z,22.50
2019-05-22T04:22:07.376Z,28.13
2019-05-22T04:23:07.362Z,28.13
2019-05-22T04:24:07.350Z,28.13
2019-05-22T04:25:07.345Z,28.13
2019-05-22T04:26:07.308Z,28.13
2019-05-22T04:27:07.287Z,28.13
2019-05-22T04:28:07.272Z,28.13
2019-05-22T04:29:07.254Z,33.75
2019-05-22T04:30:07.240Z,33.75
2019-05-22T04:31:07.220Z,33.75
2019-05-22T04:32:07.204Z,33.75
2019-05-22T04:33:07.185Z,33.75
2019-05-22T04:34:07.289Z,33.75
2019-05-22T04:35:07.151Z,33.75
2019-05-22T04:36:10.066Z,33.75
2019-05-22T04:37:07.117Z,33.75
2019-05-22T04:38:07.099Z,33.75
2019-05-22T04:39:07.334Z,33.75
2019-05-22T04:40:07.087Z,33.75
2019-05-22T04:41:07.048Z,28.13
2019-05-22T04:42:07.033Z,28.13
2019-05-22T04:43:07.014Z,28.13
2019-05-22T04:44:06.996Z,28.13
2019-05-22T04:45:06.979Z,28.13
2019-05-22T04:46:06.963Z,28.13
2019-05-22T04:47:06.945Z,33.75
2019-05-22T04:48:06.928Z,33.75
2019-05-22T04:49:06.909Z,39.38
2019-05-22T04:50:08.152Z,39.38
2019-05-22T04:51:06.885Z,45.00
2019-05-22T04:52:06.861Z,45.00
2019-05-22T04:53:06.841Z,39.38
2019-05-22T04:54:06.835Z,39.38
2019-05-22T04:55:06.810Z,33.75
2019-05-22T04:56:06.791Z,33.75
2019-05-22T04:57:06.773Z,33.75
2019-05-22T04:58:06.758Z,28.13
2019-05-22T04:59:06.764Z,28.13
2019-05-22T05:00:06.726Z,28.13
2019-05-22T05:01:06.703Z,28.13
2019-05-22T05:02:06.688Z,28.13
2019-05-22T05:03:06.673Z,28.13
2019-05-22T05:04:06.718Z,28.13
2019-05-22T05:05:06.634Z,28.13
2019-05-22T05:06:07.138Z,28.13
2019-05-22T05:07:06.602Z,28.13
2019-05-22T05:08:06.585Z,28.13
2019-05-22T05:09:06.570Z,28.13
2019-05-22T05:10:06.551Z,28.13
2019-05-22T05:11:06.534Z,28.13
2019-05-22T05:12:06.516Z,33.75
2019-05-22T05:13:06.503Z,33.75
2019-05-22T05:14:06.489Z,39.38
2019-05-22T05:15:06.473Z,39.38
2019-05-22T05:16:06.454Z,39.38
2019-05-22T05:17:06.444Z,45.00
2019-05-22T05:18:06.415Z,45.00
2019-05-22T05:19:06.409Z,45.00
2019-05-22T05:20:21.382Z,45.00
2019-05-22T05:21:06.361Z,45.00
2019-05-22T05:22:06.338Z,45.00
2019-05-22T05:23:06.328Z,45.00
2019-05-22T05:24:06.311Z,45.00
2019-05-22T05:25:06.294Z,50.63
2019-05-22T05:26:06.277Z,50.63
2019-05-22T05:27:06.257Z,45.00
2019-05-22T05:28:06.279Z,45.00
2019-05-22T05:29:06.228Z,50.63
2019-05-22T05:30:06.229Z,50.63
2019-05-22T05:31:06.202Z,56.25
2019-05-22T05:32:06.176Z,56.25
2019-05-22T05:33:06.173Z,56.25
2019-05-22T05:34:06.142Z,56.25
2019-05-22T05:35:06.131Z,56.25
2019-05-22T05:36:06.107Z,56.25
2019-05-22T05:37:06.092Z,56.25
2019-05-22T05:38:06.076Z,56.25
2019-05-22T05:39:06.248Z,56.25
2019-05-22T05:40:06.238Z,56.25
2019-05-22T05:41:06.221Z,61.88
2019-05-22T05:42:06.204Z,61.88
2019-05-22T05:43:06.019Z,67.50
2019-05-22T05:44:05.977Z,61.88
2019-05-22T05:45:05.961Z,61.88
2019-05-22T05:46:05.965Z,61.88
2019-05-22T05:47:05.944Z,61.88
2019-05-22T05:48:05.911Z,61.88
2019-05-22T05:49:05.891Z,67.50
2019-05-22T05:50:05.893Z,67.50
2019-05-22T05:51:05.861Z,73.13
2019-05-22T05:52:05.841Z,78.75
2019-05-22T05:53:05.827Z,78.75
2019-05-22T05:54:05.812Z,78.75
2019-05-22T05:55:05.793Z,78.75
2019-05-22T05:56:05.777Z,78.75
2019-05-22T05:57:05.761Z,90.00
2019-05-22T05:58:05.743Z,101.25
2019-05-22T05:59:05.741Z,106.88
2019-05-22T06:00:05.712Z,106.88
2019-05-22T06:01:05.696Z,106.88
2019-05-22T06:02:05.678Z,101.25
2019-05-22T06:03:05.660Z,95.63
2019-05-22T06:04:05.645Z,95.63
2019-05-22T06:05:05.629Z,95.63
2019-05-22T06:06:05.625Z,101.25
2019-05-22T06:07:05.600Z,106.88
2019-05-22T06:08:05.583Z,106.88
2019-05-22T06:09:05.565Z,112.50
2019-05-22T06:10:05.551Z,118.13
2019-05-22T06:11:05.533Z,123.75
2019-05-22T06:12:05.906Z,123.75
2019-05-22T06:13:05.498Z,123.75
2019-05-22T06:14:05.487Z,135.00
2019-05-22T06:15:05.469Z,151.88
2019-05-22T06:16:05.449Z,157.50
2019-05-22T06:17:05.438Z,151.88
2019-05-22T06:18:05.422Z,135.00
2019-05-22T06:19:05.409Z,123.75
2019-05-22T06:20:05.390Z,118.13
2019-05-22T06:21:05.374Z,118.13
2019-05-22T06:22:05.370Z,123.75
2019-05-22T06:23:05.342Z,129.38
2019-05-22T06:24:05.329Z,146.25
2019-05-22T06:25:05.498Z,151.88
2019-05-22T06:26:05.469Z,157.50
2019-05-22T06:27:05.276Z,163.13
2019-05-22T06:28:05.265Z,168.75
2019-05-22T06:29:05.244Z,168.75
2019-05-22T06:30:05.238Z,174.38
2019-05-22T06:31:05.215Z,174.38
2019-05-22T06:32:05.198Z,174.38
2019-05-22T06:33:05.184Z,174.38
2019-05-22T06:34:05.171Z,168.75
2019-05-22T06:35:05.354Z,157.50
2019-05-22T06:36:05.332Z,151.88
2019-05-22T06:37:05.310Z,146.25
2019-05-22T06:38:05.274Z,146.25
2019-05-22T06:39:05.266Z,146.25
2019-05-22T06:40:05.261Z,146.25
2019-05-22T06:41:05.257Z,163.13
2019-05-22T06:42:05.236Z,180.00
2019-05-22T06:43:05.034Z,191.25
2019-05-22T06:44:05.014Z,208.13
2019-05-22T06:45:05.306Z,208.13
2019-05-22T06:46:04.986Z,208.13
2019-05-22T06:47:04.991Z,213.75
2019-05-22T06:48:04.956Z,225.00
2019-05-22T06:49:04.940Z,225.00
2019-05-22T06:50:04.928Z,236.25
2019-05-22T06:51:18.529Z,241.88
2019-05-22T06:52:04.901Z,253.13
2019-05-22T06:53:09.860Z,253.13
2019-05-22T06:54:04.869Z,258.75
2019-05-22T06:55:04.856Z,253.13
2019-05-22T06:56:04.839Z,236.25
2019-05-22T06:57:04.825Z,202.50
2019-05-22T06:58:04.810Z,180.00
2019-05-22T06:59:04.803Z,174.38
2019-05-22T07:00:14.492Z,174.38
2019-05-22T07:01:04.765Z,168.75
2019-05-22T07:02:04.753Z,168.75
2019-05-22T07:03:04.732Z,180.00
2019-05-22T07:04:04.716Z,174.38
2019-05-22T07:05:04.707Z,180.00
2019-05-22T07:06:04.802Z,174.38
2019-05-22T07:07:04.735Z,185.63
2019-05-22T07:08:04.664Z,196.88
2019-05-22T07:09:04.651Z,219.38
2019-05-22T07:10:04.633Z,247.50
2019-05-22T07:11:04.616Z,281.25
2019-05-22T07:12:04.602Z,292.50
2019-05-22T07:13:04.586Z,309.38
2019-05-22T07:14:04.572Z,343.13
2019-05-22T07:15:04.569Z,393.75
2019-05-22T07:16:04.547Z,354.38
2019-05-22T07:17:04.530Z,365.63
2019-05-22T07:18:04.512Z,371.25
2019-05-22T07:19:04.520Z,399.38
2019-05-22T07:20:04.511Z,343.13
2019-05-22T07:21:04.475Z,360.00
2019-05-22T07:22:04.462Z,371.25
2019-05-22T07:23:04.447Z,315.00
2019-05-22T07:24:04.434Z,303.75
2019-05-22T07:25:04.422Z,365.63
2019-05-22T07:26:04.409Z,326.25
2019-05-22T07:27:04.401Z,320.63
2019-05-22T07:28:04.385Z,365.63
2019-05-22T07:29:05.155Z,298.13
2019-05-22T07:30:04.470Z,236.25
2019-05-22T07:31:04.387Z,225.00
2019-05-22T07:32:04.369Z,213.75
2019-05-22T07:33:04.345Z,219.38
2019-05-22T07:34:04.310Z,225.00
2019-05-22T07:35:04.300Z,208.13
2019-05-22T07:36:16.377Z,213.75
2019-05-22T07:37:04.276Z,264.38
2019-05-22T07:38:04.264Z,309.38
2019-05-22T07:39:04.259Z,303.75
2019-05-22T07:40:04.239Z,315.00
2019-05-22T07:41:04.227Z,337.50
2019-05-22T07:42:04.214Z,281.25
2019-05-22T07:43:04.214Z,270.00
2019-05-22T07:44:04.190Z,270.00
2019-05-22T07:45:04.179Z,258.75
2019-05-22T07:46:04.183Z,275.63
2019-05-22T07:47:04.152Z,309.38
2019-05-22T07:48:04.158Z,281.25
2019-05-22T07:49:04.129Z,270.00
2019-05-22T07:50:04.221Z,264.38
2019-05-22T07:51:04.294Z,258.75
2019-05-22T07:52:04.271Z,258.75
2019-05-22T07:53:04.291Z,258.75
2019-05-22T07:54:04.324Z,258.75
2019-05-22T07:55:04.059Z,264.38
2019-05-22T07:56:04.065Z,258.75
2019-05-22T07:57:04.037Z,253.13
2019-05-22T07:58:04.024Z,241.88
2019-05-22T07:59:04.025Z,253.13
2019-05-22T08:00:04.004Z,275.63
2019-05-22T08:01:03.993Z,275.63
2019-05-22T08:02:03.979Z,253.13
2019-05-22T08:03:03.969Z,236.25
2019-05-22T08:04:03.958Z,241.88
2019-05-22T08:05:03.947Z,264.38
2019-05-22T08:06:04.061Z,281.25
2019-05-22T08:07:04.114Z,292.50
2019-05-22T08:08:04.111Z,298.13
2019-05-22T08:09:03.901Z,309.38
2019-05-22T08:10:03.929Z,309.38
2019-05-22T08:11:03.882Z,298.13
2019-05-22T08:12:03.871Z,303.75
2019-05-22T08:13:03.864Z,281.25
2019-05-22T08:14:03.846Z,241.88
2019-05-22T08:15:03.835Z,236.25
2019-05-22T08:16:03.825Z,253.13
2019-05-22T08:17:03.814Z,275.63
2019-05-22T08:18:03.818Z,298.13
2019-05-22T08:19:03.792Z,320.63
2019-05-22T08:20:03.794Z,315.00
2019-05-22T08:21:03.949Z,320.63
2019-05-22T08:22:07.100Z,315.00
2019-05-22T08:23:03.750Z,315.00
2019-05-22T08:24:03.817Z,315.00
2019-05-22T08:25:03.731Z,292.50
2019-05-22T08:26:03.724Z,275.63
2019-05-22T08:27:03.707Z,258.75
2019-05-22T08:28:03.699Z,270.00
2019-05-22T08:29:03.690Z,275.63
2019-05-22T08:30:03.687Z,264.38
2019-05-22T08:31:03.670Z,253.13
2019-05-22T08:32:03.656Z,247.50
2019-05-22T08:33:03.646Z,241.88
2019-05-22T08:34:03.635Z,230.63
2019-05-22T08:35:03.634Z,225.00
2019-05-22T08:36:03.624Z,219.38
2019-05-22T08:37:03.605Z,213.75
2019-05-22T08:38:03.606Z,213.75
2019-05-22T08:39:03.596Z,213.75
2019-05-22T08:40:03.577Z,236.25
2019-05-22T08:41:03.567Z,202.50
2019-05-22T08:42:03.557Z,202.50
2019-05-22T08:43:03.548Z,174.38
2019-05-22T08:44:16.055Z,140.63
2019-05-22T08:45:03.542Z,140.63
2019-05-22T08:46:03.533Z,146.25
2019-05-22T08:47:03.514Z,140.63
2019-05-22T08:48:03.502Z,146.25
2019-05-22T08:49:03.487Z,157.50
2019-05-22T08:50:03.479Z,163.13
2019-05-22T08:51:03.476Z,157.50
2019-05-22T08:52:03.461Z,157.50
2019-05-22T08:53:03.448Z,157.50
2019-05-22T08:54:05.912Z,163.13
2019-05-22T08:55:03.435Z,174.38
2019-05-22T08:56:03.419Z,185.63
2019-05-22T08:57:03.409Z,191.25
2019-05-22T08:58:03.408Z,196.88
2019-05-22T08:59:18.404Z,196.88
2019-05-22T09:00:03.378Z,202.50
2019-05-22T09:01:03.437Z,208.13
2019-05-22T09:02:03.356Z,208.13
2019-05-22T09:03:03.347Z,208.13
2019-05-22T09:04:03.334Z,219.38
2019-05-22T09:05:03.347Z,225.00
2019-05-22T09:06:03.313Z,241.88
2019-05-22T09:07:03.306Z,264.38
2019-05-22T09:08:03.308Z,258.75
2019-05-22T09:09:03.280Z,247.50
2019-05-22T09:10:03.269Z,225.00
2019-05-22T09:11:03.297Z,208.13
2019-05-22T09:12:03.252Z,202.50
2019-05-22T09:13:03.238Z,213.75
2019-05-22T09:14:03.229Z,236.25
2019-05-22T09:15:03.219Z,258.75
2019-05-22T09:16:03.202Z,275.63
2019-05-22T09:17:03.195Z,264.38
2019-05-22T09:18:03.179Z,241.88
2019-05-22T09:19:03.171Z,213.75
2019-05-22T09:20:03.595Z,230.63
2019-05-22T09:21:03.333Z,225.00
2019-05-22T09:22:03.140Z,230.63
2019-05-22T09:23:03.129Z,230.63
2019-05-22T09:24:03.124Z,219.38
2019-05-22T09:25:03.505Z,202.50
2019-05-22T09:26:03.100Z,191.25
2019-05-22T09:27:03.334Z,191.25
2019-05-22T09:28:03.079Z,196.88
2019-05-22T09:29:03.072Z,213.75
2019-05-22T09:30:03.058Z,230.63
2019-05-22T09:31:03.057Z,236.25
2019-05-22T09:32:03.374Z,247.50
2019-05-22T09:33:03.030Z,258.75
2019-05-22T09:34:03.021Z,286.88
2019-05-22T09:35:03.015Z,258.75
2019-05-22T09:36:03.115Z,247.50
2019-05-22T09:37:02.993Z,241.88
2019-05-22T09:38:02.981Z,236.25
2019-05-22T09:39:02.974Z,230.63
2019-05-22T09:40:02.965Z,230.63
2019-05-22T09:41:02.955Z,230.63
2019-05-22T09:42:02.951Z,247.50
2019-05-22T09:43:02.937Z,298.13
2019-05-22T09:44:02.933Z,309.38
2019-05-22T09:45:02.920Z,320.63
2019-05-22T09:46:02.912Z,326.25
2019-05-22T09:47:02.903Z,348.75
2019-05-22T09:48:02.896Z,326.25
2019-05-22T09:49:02.886Z,309.38
2019-05-22T09:50:02.882Z,298.13
2019-05-22T09:51:02.867Z,292.50
2019-05-22T09:52:02.868Z,281.25
2019-05-22T09:53:02.855Z,270.00
2019-05-22T09:54:02.851Z,264.38
2019-05-22T09:55:02.841Z,264.38
2019-05-22T09:56:02.835Z,270.00
2019-05-22T09:57:02.830Z,270.00
2019-05-22T09:58:02.819Z,281.25
2019-05-22T09:59:02.810Z,292.50
2019-05-22T10:00:02.805Z,292.50
2019-05-22T10:01:02.797Z,303.75
2019-05-22T10:02:02.788Z,309.38
2019-05-22T10:03:02.781Z,303.75
2019-05-22T10:04:02.774Z,292.50
2019-05-22T10:05:02.768Z,292.50
2019-05-22T10:06:02.915Z,298.13
2019-05-22T10:07:02.750Z,309.38
2019-05-22T10:08:02.745Z,331.88
2019-05-22T10:09:02.735Z,343.13
2019-05-22T10:10:02.727Z,315.00
2019-05-22T10:11:02.725Z,337.50
2019-05-22T10:12:02.713Z,382.50
2019-05-22T10:13:02.911Z,376.88
2019-05-22T10:14:02.886Z,326.25
2019-05-22T10:15:04.155Z,303.75
2019-05-22T10:16:02.865Z,286.88
2019-05-22T10:17:02.867Z,292.50
2019-05-22T10:18:02.877Z,292.50
2019-05-22T10:19:02.672Z,281.25
2019-05-22T10:20:02.666Z,275.63
2019-05-22T10:21:02.653Z,275.63
2019-05-22T10:22:02.652Z,270.00
2019-05-22T10:23:15.070Z,264.38
2019-05-22T10:24:02.646Z,264.38
2019-05-22T10:25:14.787Z,264.38
2019-05-22T10:26:02.626Z,264.38
2019-05-22T10:27:02.650Z,258.75
2019-05-22T10:28:02.613Z,247.50
2019-05-22T10:29:02.610Z,247.50
2019-05-22T10:30:02.598Z,247.50
2019-05-22T10:31:02.875Z,253.13
2019-05-22T10:32:02.585Z,253.13
2019-05-22T10:33:02.581Z,264.38
2019-05-22T10:34:02.571Z,270.00
2019-05-22T10:35:02.566Z,275.63
2019-05-22T10:36:02.556Z,275.63
2019-05-22T10:37:02.548Z,286.88
2019-05-22T10:38:02.556Z,303.75
2019-05-22T10:39:02.550Z,315.00
2019-05-22T10:40:02.528Z,326.25
2019-05-22T10:41:02.509Z,320.63
2019-05-22T10:42:02.513Z,320.63
2019-05-22T10:43:02.519Z,320.63
2019-05-22T10:44:02.500Z,320.63
2019-05-22T10:45:02.490Z,371.25
2019-05-22T10:46:02.513Z,365.63
2019-05-22T10:47:02.484Z,320.63
2019-05-22T10:48:02.478Z,309.38
2019-05-22T10:49:02.461Z,303.75
2019-05-22T10:50:02.457Z,292.50
2019-05-22T10:51:02.474Z,292.50
2019-05-22T10:52:02.506Z,298.13
2019-05-22T10:53:02.437Z,309.38
2019-05-22T10:54:02.430Z,365.63
2019-05-22T10:55:02.432Z,303.75
2019-05-22T10:56:02.631Z,298.13
2019-05-22T10:57:02.425Z,275.63
2019-05-22T10:58:02.412Z,270.00
2019-05-22T10:59:02.407Z,264.38
2019-05-22T11:00:02.421Z,264.38
2019-05-22T11:01:02.398Z,275.63
2019-05-22T11:02:02.467Z,281.25
2019-05-22T11:03:02.543Z,286.88
2019-05-22T11:04:02.382Z,292.50
2019-05-22T11:05:02.367Z,360.00
2019-05-22T11:06:07.154Z,382.50
2019-05-22T11:07:02.363Z,365.63
2019-05-22T11:08:02.376Z,343.13
2019-05-22T11:09:02.350Z,315.00
2019-05-22T11:10:02.343Z,298.13
2019-05-22T11:11:02.337Z,298.13
2019-05-22T11:12:02.520Z,292.50
2019-05-22T11:13:02.523Z,292.50
2019-05-22T11:14:02.399Z,298.13
2019-05-22T11:15:02.323Z,303.75
2019-05-22T11:16:02.353Z,309.38
2019-05-22T11:17:02.314Z,309.38
2019-05-22T11:18:02.315Z,309.38
2019-05-22T11:19:02.309Z,309.38
2019-05-22T11:20:02.301Z,303.75
2019-05-22T11:21:02.294Z,326.25
2019-05-22T11:22:02.310Z,348.75
2019-05-22T11:23:02.433Z,337.50
2019-05-22T11:24:02.284Z,326.25
2019-05-22T11:25:02.278Z,315.00
2019-05-22T11:26:02.281Z,303.75
2019-05-22T11:27:02.270Z,270.00
2019-05-22T11:28:02.273Z,270.00
2019-05-22T11:29:02.270Z,275.63
2019-05-22T11:30:02.259Z,264.38
2019-05-22T11:31:02.263Z,298.13
2019-05-22T11:32:02.261Z,264.38
2019-05-22T11:33:02.263Z,270.00
2019-05-22T11:34:02.247Z,275.63
2019-05-22T11:35:02.244Z,286.88
2019-05-22T11:36:02.249Z,298.13
2019-05-22T11:37:02.238Z,309.38
2019-05-22T11:38:02.232Z,315.00
2019-05-22T11:39:02.415Z,309.38
2019-05-22T11:40:02.266Z,303.75
2019-05-22T11:41:02.218Z,298.13
2019-05-22T11:42:02.210Z,286.88
2019-05-22T11:43:02.395Z,275.63
2019-05-22T11:44:02.217Z,264.38
2019-05-22T11:45:02.216Z,258.75
2019-05-22T11:46:02.189Z,253.13
2019-05-22T11:47:02.241Z,253.13
2019-05-22T11:48:02.179Z,303.75
2019-05-22T11:49:02.170Z,258.75
2019-05-22T11:50:02.215Z,270.00
2019-05-22T11:51:02.161Z,219.38
2019-05-22T11:52:02.156Z,230.63
2019-05-22T11:53:02.154Z,258.75
2019-05-22T11:54:09.249Z,230.63
2019-05-22T11:55:02.158Z,230.63
2019-05-22T11:56:02.138Z,241.88
2019-05-22T11:57:02.130Z,236.25
2019-05-22T11:58:02.128Z,247.50
2019-05-22T11:59:02.180Z,258.75
2019-05-22T12:00:02.122Z,270.00
2019-05-22T12:01:02.139Z,281.25
2019-05-22T12:02:02.121Z,286.88
2019-05-22T12:03:02.107Z,292.50
2019-05-22T12:04:02.104Z,298.13
2019-05-22T12:05:02.099Z,292.50
2019-05-22T12:06:02.100Z,337.50
2019-05-22T12:07:02.088Z,337.50
2019-05-22T12:08:02.085Z,286.88
2019-05-22T12:09:02.082Z,270.00
2019-05-22T12:10:02.077Z,275.63
2019-05-22T12:11:02.081Z,270.00
2019-05-22T12:12:02.103Z,258.75
2019-05-22T12:13:02.068Z,247.50
2019-05-22T12:14:02.073Z,241.88
2019-05-22T12:15:02.054Z,236.25
2019-05-22T12:16:02.052Z,225.00
2019-05-22T12:17:02.042Z,225.00
2019-05-22T12:18:02.039Z,230.63
2019-05-22T12:19:02.225Z,236.25
2019-05-22T12:20:02.261Z,241.88
2019-05-22T12:21:02.021Z,247.50
2019-05-22T12:22:02.027Z,247.50
2019-05-22T12:23:02.029Z,247.50
2019-05-22T12:24:02.010Z,292.50
2019-05-22T12:25:02.018Z,315.00
2019-05-22T12:26:01.994Z,309.38
2019-05-22T12:27:01.987Z,286.88
2019-05-22T12:28:01.982Z,258.75
2019-05-22T12:29:01.998Z,286.88
2019-05-22T12:30:01.973Z,270.00
2019-05-22T12:31:01.965Z,202.50
2019-05-22T12:32:01.962Z,208.13
2019-05-22T12:33:01.979Z,213.75
2019-05-22T12:34:01.950Z,241.88
2019-05-22T12:35:02.354Z,236.25
2019-05-22T12:36:02.153Z,219.38
2019-05-22T12:37:01.938Z,230.63
2019-05-22T12:38:01.929Z,253.13
2019-05-22T12:39:01.919Z,213.75
2019-05-22T12:40:01.926Z,219.38
2019-05-22T12:41:01.918Z,230.63
2019-05-22T12:42:01.914Z,258.75
2019-05-22T12:43:01.909Z,236.25
2019-05-22T12:44:01.911Z,230.63
2019-05-22T12:45:01.950Z,230.63
2019-05-22T12:46:01.895Z,230.63
2019-05-22T12:47:01.892Z,230.63